Time;durP1;ratioP1;P1;durP2;ratioP2;P2;SDS_P1;SDS_P2;PMS_P1;PMS_P2;Temp;Humidity;BMP_temperature;BMP_pressure;BME280_temperature;BME280_humidity;BME280_pressure;Samples;Min_cycle;Max_cycle;Signal;HPM_P1;HPM_P2
2023/10/26 00:00:13;;;;;;;1.92;0.90;;;;;;;19.12;51.68;99619.47;16117253;19;129532;-39
2023/10/26 00:05:35;;;;;;;1.25;0.63;;;;;;;19.10;51.15;99622.53;16114355;19;130921;-39
2023/10/26 00:11:01;;;;;;;1.75;0.60;;;;;;;19.08;51.23;99631.13;16116479;19;130582;-39
2023/10/26 00:16:23;;;;;;;4.68;0.82;;;;;;;19.07;51.16;99635.03;16117266;19;130278;-39
2023/10/26 00:21:45;;;;;;;1.55;0.80;;;;;;;19.06;51.62;99626.97;16117352;19;131966;-39
2023/10/26 00:27:07;;;;;;;0.70;0.60;;;;;;;19.04;51.21;99621.72;16110522;19;131370;-39
2023/10/26 00:32:29;;;;;;;2.78;0.70;;;;;;;19.03;51.67;99627.53;16114436;19;130424;-39
2023/10/26 00:37:51;;;;;;;0.93;0.70;;;;;;;19.01;51.39;99616.75;16115453;19;131503;-39
2023/10/26 00:43:24;;;;;;;2.92;0.70;;;;;;;19.01;51.14;99625.06;16110308;19;129428;-39
2023/10/26 00:48:46;;;;;;;3.42;0.85;;;;;;;18.97;51.56;99615.63;16114851;19;129208;-39
2023/10/26 00:54:09;;;;;;;2.58;0.50;;;;;;;18.97;51.42;99623.94;16112307;19;129606;-39
2023/10/26 00:59:32;;;;;;;1.38;0.70;;;;;;;18.95;51.14;99626.19;16109397;19;130700;-39
2023/10/26 01:04:54;;;;;;;2.88;0.80;;;;;;;18.94;51.13;99630.06;16114586;19;129890;-39
2023/10/26 01:10:16;;;;;;;2.45;0.63;;;;;;;18.92;51.24;99632.28;16115897;19;134354;-39
2023/10/26 01:15:38;;;;;;;1.92;0.57;;;;;;;18.90;51.09;99640.03;16109666;19;132441;-39
2023/10/26 01:21:00;;;;;;;2.70;0.55;;;;;;;18.89;51.18;99638.38;16111910;19;130646;-39
2023/10/26 01:26:23;;;;;;;2.65;0.63;;;;;;;18.88;51.42;99640.34;16109121;19;130557;-39
2023/10/26 01:31:45;;;;;;;1.13;0.60;;;;;;;18.88;51.40;99648.66;16108343;19;129601;-39
2023/10/26 01:37:07;;;;;;;1.90;0.80;;;;;;;18.86;51.38;99650.00;16108186;19;130660;-39
2023/10/26 01:42:29;;;;;;;3.15;0.60;;;;;;;18.84;51.44;99647.53;16108288;19;129675;-39
2023/10/26 01:47:52;;;;;;;1.30;0.52;;;;;;;18.83;51.18;99651.41;16111764;19;131419;-39
2023/10/26 01:53:14;;;;;;;1.15;0.50;;;;;;;18.82;51.63;99648.94;16114711;19;130336;-39
2023/10/26 01:58:36;;;;;;;1.77;0.52;;;;;;;18.80;51.36;99651.97;16127329;19;129369;-38
2023/10/26 02:03:58;;;;;;;3.13;0.70;;;;;;;18.79;51.56;99643.94;16121704;19;129955;-39
2023/10/26 02:09:23;;;;;;;1.60;0.60;;;;;;;18.76;51.43;99632.31;16118473;19;130244;-39
2023/10/26 02:14:45;;;;;;;4.40;0.52;;;;;;;18.75;51.71;99625.09;16124280;19;129380;-39
2023/10/26 02:20:07;;;;;;;1.00;0.40;;;;;;;18.74;51.44;99614.31;16123548;19;130308;-39
2023/10/26 02:25:29;;;;;;;1.52;0.40;;;;;;;18.72;51.38;99622.88;16121632;19;131548;-39
2023/10/26 02:30:51;;;;;;;2.33;0.43;;;;;;;18.71;51.63;99618.44;16124137;19;129599;-38
2023/10/26 02:36:13;;;;;;;0.95;0.60;;;;;;;18.70;51.60;99613.19;16124458;19;129451;-39
2023/10/26 02:41:35;;;;;;;1.45;0.45;;;;;;;18.69;51.21;99611.53;16123623;19;129164;-39
2023/10/26 02:46:57;;;;;;;0.77;0.47;;;;;;;18.67;51.44;99609.03;16123909;19;129678;-40
2023/10/26 02:52:19;;;;;;;1.00;0.70;;;;;;;18.66;51.40;99620.38;16116312;19;130799;-39
2023/10/26 02:57:41;;;;;;;0.85;0.80;;;;;;;18.64;51.46;99609.59;16120543;19;129848;-39
2023/10/26 03:03:03;;;;;;;0.88;0.52;;;;;;;18.62;51.56;99600.72;16118518;19;130030;-41
2023/10/26 03:08:26;;;;;;;1.73;0.50;;;;;;;18.62;51.27;99597.97;16118752;19;129986;-39
2023/10/26 03:13:47;;;;;;;0.93;0.50;;;;;;;18.61;51.38;99585.22;16115969;19;130273;-39
2023/10/26 03:19:09;;;;;;;1.52;0.60;;;;;;;18.59;51.59;99595.75;16115456;19;129544;-38
2023/10/26 03:24:31;;;;;;;1.17;0.60;;;;;;;18.57;51.63;99598.81;16117714;19;131399;-39
2023/10/26 03:29:54;;;;;;;1.10;0.57;;;;;;;18.58;51.18;99599.66;16115659;19;129625;-38
2023/10/26 03:35:16;;;;;;;1.13;0.50;;;;;;;18.57;51.71;99597.97;16118606;19;131609;-39
2023/10/26 03:40:38;;;;;;;2.40;0.77;;;;;;;18.56;51.53;99602.69;16114553;19;130621;-39
2023/10/26 03:46:00;;;;;;;1.67;0.60;;;;;;;18.55;51.20;99603.78;16113501;19;129838;-40
2023/10/26 03:51:22;;;;;;;0.70;0.60;;;;;;;18.53;51.33;99592.16;16112630;19;129436;-39
2023/10/26 03:56:44;;;;;;;3.28;0.60;;;;;;;18.53;51.32;99594.09;16112358;19;129683;-39
2023/10/26 04:02:06;;;;;;;0.40;0.40;;;;;;;18.51;51.31;99588.00;16111735;19;130092;-39
2023/10/26 04:07:28;;;;;;;0.88;0.47;;;;;;;18.51;51.19;99579.69;16118073;19;131142;-39
2023/10/26 04:12:50;;;;;;;1.88;0.65;;;;;;;18.49;51.44;99591.06;16116966;19;129679;-39
2023/10/26 04:18:12;;;;;;;0.73;0.40;;;;;;;18.48;51.53;99586.63;16117007;19;129509;-39
2023/10/26 04:23:34;;;;;;;1.17;0.60;;;;;;;18.48;51.50;99586.63;16113507;19;129797;-39
2023/10/26 04:28:56;;;;;;;0.50;0.47;;;;;;;18.47;51.49;99568.34;16110384;19;133664;-39
2023/10/26 04:34:18;;;;;;;0.50;0.50;;;;;;;18.46;51.10;99563.91;16111960;19;129435;-39
2023/10/26 04:39:43;;;;;;;0.57;0.50;;;;;;;18.45;51.42;99568.63;16111998;19;130707;-39
2023/10/26 04:45:05;;;;;;;0.57;0.50;;;;;;;18.44;51.18;99569.75;16116352;19;130490;-40
2023/10/26 04:50:29;;;;;;;0.70;0.43;;;;;;;18.43;51.43;99559.78;16113614;19;133177;-38
2023/10/26 04:55:51;;;;;;;0.40;0.40;;;;;;;18.42;51.42;99549.81;16114306;19;130212;-39
2023/10/26 05:01:13;;;;;;;0.50;0.50;;;;;;;18.43;51.51;99559.78;16112542;19;129714;-39
2023/10/26 05:06:36;;;;;;;1.48;0.60;;;;;;;18.41;51.60;99542.59;16112134;19;130864;-39
2023/10/26 05:11:58;;;;;;;1.20;0.70;;;;;;;18.41;51.07;99545.38;16107609;19;130610;-39
2023/10/26 05:17:20;;;;;;;0.65;0.60;;;;;;;18.39;51.23;99542.03;16106736;19;131110;-39
2023/10/26 05:22:42;;;;;;;0.80;0.47;;;;;;;18.38;51.20;99540.34;16107867;19;130329;-39
2023/10/26 05:28:04;;;;;;;0.30;0.30;;;;;;;18.41;51.14;99526.00;16122276;19;129767;-43
2023/10/26 05:33:26;;;;;;;1.60;0.30;;;;;;;18.44;50.77;99533.75;16141047;19;131528;-39
2023/10/26 05:38:49;;;;;;;0.77;0.40;;;;;;;18.48;50.67;99522.09;16138428;19;129428;-39
2023/10/26 05:44:11;;;;;;;3.42;0.55;;;;;;;18.48;50.67;99517.41;16142153;19;130418;-39
2023/10/26 05:49:33;;;;;;;1.83;0.60;;;;;;;18.46;50.59;99508.53;16141470;19;129870;-39
2023/10/26 05:54:55;;;;;;;1.00;0.52;;;;;;;18.45;50.98;99513.25;16139237;19;130027;-39
2023/10/26 06:00:17;;;;;;;0.70;0.47;;;;;;;18.44;50.96;99507.97;16141825;19;129624;-38
2023/10/26 06:05:39;;;;;;;1.08;0.60;;;;;;;18.42;51.02;99507.41;16138137;19;130718;-39
2023/10/26 06:11:01;;;;;;;0.73;0.52;;;;;;;18.40;50.97;99510.47;16138815;19;129727;-39
2023/10/26 06:16:23;;;;;;;1.08;0.52;;;;;;;18.38;51.02;99507.13;16140014;19;129317;-39
2023/10/26 06:21:48;;;;;;;0.70;0.60;;;;;;;18.36;51.01;99509.34;16139712;19;131208;-39
2023/10/26 06:27:11;;;;;;;0.85;0.40;;;;;;;18.37;51.02;99501.88;16138766;19;129676;-39
2023/10/26 06:32:35;;;;;;;3.83;0.50;;;;;;;18.32;50.85;99497.19;16142349;19;130308;-39
2023/10/26 06:37:57;;;;;;;1.10;0.50;;;;;;;18.33;50.62;99503.53;16133048;19;129718;-39
2023/10/26 06:43:19;;;;;;;1.88;0.80;;;;;;;18.33;50.88;99509.91;16119133;19;129992;-39
2023/10/26 06:48:41;;;;;;;0.80;0.63;;;;;;;18.31;50.82;99499.09;16121204;19;131147;-38
2023/10/26 06:54:03;;;;;;;1.95;0.68;;;;;;;18.31;50.85;99506.59;16116076;19;129328;-39
2023/10/26 06:59:25;;;;;;;2.53;0.70;;;;;;;18.29;50.69;99504.09;16111988;19;130759;-39
2023/10/26 07:04:46;;;;;;;2.33;0.52;;;;;;;18.28;51.02;99519.03;16120667;19;129723;-39
2023/10/26 07:10:14;;;;;;;3.63;0.60;;;;;;;18.28;51.03;99505.19;16115653;19;130543;-39
2023/10/26 07:15:36;;;;;;;2.08;0.50;;;;;;;18.28;50.87;99505.19;16122662;19;129528;-39
2023/10/26 07:21:04;;;;;;;1.35;0.50;;;;;;;18.28;50.50;99498.84;16119190;19;130982;-39
2023/10/26 07:26:26;;;;;;;1.25;0.75;;;;;;;18.27;50.93;99503.56;16119622;19;129475;-39
2023/10/26 07:31:48;;;;;;;3.75;0.60;;;;;;;18.24;50.82;99506.03;16115832;19;129440;-39
2023/10/26 07:37:11;;;;;;;1.00;0.70;;;;;;;18.25;50.55;99507.69;16114759;19;129855;-38
2023/10/26 07:42:34;;;;;;;2.42;0.70;;;;;;;18.25;50.84;99497.47;16119247;19;131135;-39
2023/10/26 07:47:56;;;;;;;0.77;0.70;;;;;;;18.24;50.66;99489.41;16118110;19;133226;-39
2023/10/26 07:53:23;;;;;;;5.30;0.80;;;;;;;18.24;50.48;99494.97;16116986;19;130757;-38
2023/10/26 07:58:45;;;;;;;3.47;0.60;;;;;;;18.23;50.71;99505.22;16113143;19;131018;-39
2023/10/26 08:04:07;;;;;;;3.50;0.80;;;;;;;18.23;50.81;99516.28;16111126;19;129599;-39
2023/10/26 08:09:33;;;;;;;0.95;0.70;;;;;;;18.24;50.68;99514.34;16110585;19;130211;-38
2023/10/26 08:14:57;;;;;;;2.15;0.88;;;;;;;18.23;50.52;99543.13;16112058;19;129979;-38
2023/10/26 08:20:39;;;;;;;4.30;1.00;;;;;;;18.23;50.65;99526.50;16117347;19;129211;-39
2023/10/26 08:26:09;;;;;;;2.08;0.80;;;;;;;18.23;50.60;99523.75;16115395;19;130249;-39
2023/10/26 08:31:35;;;;;;;2.72;1.02;;;;;;;18.23;50.43;99520.97;16115954;19;129755;-39
2023/10/26 08:37:00;;;;;;;;;;;;;;;18.20;50.34;99529.88;16116899;19;130268;-39
2023/10/26 08:42:40;;;;;;;2.47;1.10;;;;;;;18.20;50.38;99516.84;16112821;19;130963;-39
2023/10/26 08:48:03;;;;;;;1.77;0.85;;;;;;;18.19;50.50;99517.94;16107304;19;129932;-39
2023/10/26 08:53:25;;;;;;;1.50;1.00;;;;;;;18.19;50.64;99514.34;16111670;19;130410;-38
2023/10/26 08:58:48;;;;;;;1.15;0.98;;;;;;;18.20;50.51;99521.56;16111249;19;131301;-38
2023/10/26 09:04:11;;;;;;;1.58;0.93;;;;;;;18.19;50.30;99517.13;16109488;19;129547;-39
2023/10/26 09:09:44;;;;;;;3.42;1.45;;;;;;;18.22;50.19;99516.53;16112074;19;130551;-39
2023/10/26 09:15:06;;;;;;;5.88;2.50;;;;;;;18.25;49.47;99504.94;16112538;19;129605;-39
2023/10/26 09:20:28;;;;;;;5.82;1.92;;;;;;;18.30;49.11;99507.69;16113227;19;130025;-39
2023/10/26 09:26:03;;;;;;;6.55;2.35;;;;;;;18.34;48.82;99492.16;16113191;19;130656;-39
2023/10/26 09:31:25;;;;;;;5.95;2.75;;;;;;;18.35;48.81;99474.44;16113359;19;130156;-39
2023/10/26 09:37:04;;;;;;;9.60;3.10;;;;;;;18.38;48.23;99473.91;16110886;19;129559;-39
2023/10/26 09:42:27;;;;;;;4.53;2.53;;;;;;;18.34;48.71;99470.03;16109364;19;131066;-39
2023/10/26 09:47:49;;;;;;;4.75;2.50;;;;;;;18.30;48.79;99466.19;16110072;19;130118;-42
2023/10/26 09:53:12;;;;;;;4.82;2.25;;;;;;;18.29;49.18;99442.38;16110863;19;132773;-39
2023/10/26 09:58:41;;;;;;;6.50;3.08;;;;;;;18.28;49.24;99443.47;16112148;19;129195;-39
2023/10/26 10:04:04;;;;;;;5.38;2.80;;;;;;;18.25;49.19;99435.72;16107093;19;129958;-38
2023/10/26 10:09:28;;;;;;;3.95;2.42;;;;;;;18.25;49.16;99433.81;16107233;19;129608;-39
2023/10/26 10:14:54;;;;;;;4.18;2.70;;;;;;;18.26;49.23;99437.38;16115408;19;129387;-39
2023/10/26 10:20:40;;;;;;;6.63;2.63;;;;;;;18.26;49.48;99449.31;16126875;19;130683;-39
2023/10/26 10:26:02;;;;;;;5.50;3.10;;;;;;;18.26;49.46;99451.22;16122690;19;129310;-39
2023/10/26 10:31:44;;;;;;;5.00;2.90;;;;;;;18.29;49.19;99458.97;16125876;19;129522;-39
2023/10/26 10:37:11;;;;;;;5.82;2.60;;;;;;;18.32;49.51;99455.66;16125141;19;130622;-38
2023/10/26 10:42:33;;;;;;;4.57;2.75;;;;;;;18.30;49.04;99444.84;16126394;19;129603;-38
2023/10/26 10:47:55;;;;;;;4.47;2.72;;;;;;;18.28;49.33;99458.13;16126138;19;129956;-39
2023/10/26 10:53:17;;;;;;;3.78;2.30;;;;;;;18.28;49.48;99451.78;16117948;19;131001;-39
2023/10/26 10:58:39;;;;;;;3.20;2.15;;;;;;;18.27;49.28;99455.66;16122260;19;129833;-38
2023/10/26 11:04:06;;;;;;;3.40;2.45;;;;;;;18.29;49.12;99453.44;16118637;19;131043;-39
2023/10/26 11:09:37;;;;;;;4.80;2.75;;;;;;;18.29;49.18;99448.72;16121989;19;129468;-39
2023/10/26 11:15:00;;;;;;;6.72;2.70;;;;;;;18.29;49.53;99457.03;16119627;19;129504;-38
2023/10/26 11:20:43;;;;;;;4.93;2.15;;;;;;;18.32;49.05;99455.66;16118234;19;130615;-38
2023/10/26 11:26:14;;;;;;;3.28;2.30;;;;;;;18.31;49.13;99440.16;16116528;19;129711;-40
2023/10/26 11:31:41;;;;;;;3.10;2.20;;;;;;;18.29;49.45;99442.38;16120636;19;134677;-39
2023/10/26 11:37:03;;;;;;;5.07;2.28;;;;;;;18.27;49.26;99450.97;16119412;19;130286;-39
2023/10/26 11:42:45;;;;;;;3.13;2.10;;;;;;;18.28;49.61;99435.97;16116720;19;129810;-38
2023/10/26 11:48:07;;;;;;;3.65;2.10;;;;;;;18.25;49.36;99436.56;16116999;19;129676;-39
2023/10/26 11:53:29;;;;;;;4.75;1.83;;;;;;;18.25;49.66;99432.94;16117288;19;130881;-39
2023/10/26 11:58:51;;;;;;;3.03;2.00;;;;;;;18.24;49.64;99434.91;16119526;19;133349;-39
2023/10/26 12:04:13;;;;;;;3.78;2.17;;;;;;;18.27;49.57;99439.03;16114147;19;131429;-39
2023/10/26 12:09:35;;;;;;;3.95;2.05;;;;;;;18.25;49.70;99436.56;16116332;19;129732;-39
2023/10/26 12:14:57;;;;;;;3.10;2.13;;;;;;;18.23;49.78;99433.25;16114629;19;131539;-39
2023/10/26 12:20:19;;;;;;;2.88;1.95;;;;;;;18.22;49.75;99422.44;16116444;19;131350;-39
2023/10/26 12:25:42;;;;;;;2.65;1.55;;;;;;;18.21;50.12;99429.09;16114966;19;131657;-39
2023/10/26 12:31:08;;;;;;;3.58;1.92;;;;;;;18.22;49.86;99417.75;16112273;19;129296;-40
2023/10/26 12:36:33;;;;;;;2.33;1.60;;;;;;;18.23;49.94;99413.03;16108845;19;130096;-39
2023/10/26 12:41:55;;;;;;;3.57;1.70;;;;;;;18.21;49.96;99412.50;16110489;19;129687;-39
2023/10/26 12:47:17;;;;;;;3.40;2.00;;;;;;;18.20;49.74;99408.06;16108615;19;129731;-39
2023/10/26 12:52:39;;;;;;;1.95;1.58;;;;;;;18.19;49.96;99407.22;16108589;19;129601;-38
2023/10/26 12:58:01;;;;;;;1.85;1.50;;;;;;;18.16;50.28;99402.25;16111868;19;130350;-39
2023/10/26 13:03:23;;;;;;;2.08;1.30;;;;;;;18.15;50.38;99404.19;16104705;19;129695;-39
2023/10/26 13:08:45;;;;;;;2.13;1.38;;;;;;;18.15;49.98;99389.53;16111945;19;130592;-39
2023/10/26 13:14:07;;;;;;;6.22;1.70;;;;;;;18.15;49.87;99393.13;16111134;19;129603;-39
2023/10/26 13:19:29;;;;;;;2.75;1.27;;;;;;;18.17;50.16;99383.72;16113967;19;131111;-39
2023/10/26 13:24:51;;;;;;;2.35;1.20;;;;;;;18.18;49.88;99390.91;16112346;19;132202;-39
2023/10/26 13:30:14;;;;;;;2.22;1.50;;;;;;;18.17;50.01;99378.19;16107983;19;129648;-39
2023/10/26 13:35:36;;;;;;;2.50;1.35;;;;;;;18.18;49.93;99374.31;16102609;19;130555;-39
2023/10/26 13:40:58;;;;;;;4.20;1.30;;;;;;;18.17;50.04;99376.22;16108268;19;129862;-39
2023/10/26 13:46:19;;;;;;;2.20;1.42;;;;;;;18.15;49.98;99370.16;16105961;19;131238;-39
2023/10/26 13:51:42;;;;;;;1.40;1.25;;;;;;;18.14;50.17;99358.25;16118789;19;130533;-39
2023/10/26 13:57:05;;;;;;;1.88;1.20;;;;;;;18.13;50.11;99351.06;16127554;19;129662;-39
2023/10/26 14:02:27;;;;;;;2.20;1.48;;;;;;;18.12;50.24;99343.03;16124107;19;129515;-39
2023/10/26 14:07:49;;;;;;;1.60;1.05;;;;;;;18.13;49.94;99333.63;16126432;19;129347;-40
2023/10/26 14:13:11;;;;;;;4.20;1.45;;;;;;;18.12;50.23;99338.31;16123613;19;131261;-39
2023/10/26 14:18:33;;;;;;;2.40;1.50;;;;;;;18.11;50.05;99344.97;16121272;19;132387;-39
2023/10/26 14:23:55;;;;;;;1.70;1.10;;;;;;;18.11;50.01;99347.75;16118973;19;131753;-39
2023/10/26 14:29:16;;;;;;;1.63;1.00;;;;;;;18.10;49.94;99332.25;16117209;19;130361;-39
2023/10/26 14:34:38;;;;;;;2.22;1.20;;;;;;;18.10;49.97;99340.53;16117396;19;130334;-39
2023/10/26 14:40:00;;;;;;;2.40;1.50;;;;;;;18.09;50.21;99338.06;16119505;19;129779;-39
2023/10/26 14:45:24;;;;;;;3.47;1.33;;;;;;;18.07;49.98;99316.22;16123015;19;130293;-38
2023/10/26 14:50:46;;;;;;;2.10;1.27;;;;;;;18.05;50.38;99315.66;16118722;19;129899;-39
2023/10/26 14:56:08;;;;;;;1.40;1.13;;;;;;;18.04;50.54;99313.16;16122501;19;129760;-38
2023/10/26 15:01:30;;;;;;;2.30;1.58;;;;;;;18.05;50.23;99309.28;16117458;19;129352;-38
2023/10/26 15:06:53;;;;;;;4.68;1.00;;;;;;;18.05;50.28;99299.06;16121377;19;130543;-38
2023/10/26 15:12:14;;;;;;;4.50;1.52;;;;;;;18.08;50.32;99290.22;16118915;19;132061;-39
2023/10/26 15:17:36;;;;;;;3.08;1.23;;;;;;;18.08;50.49;99298.50;16122473;19;130421;-39
2023/10/26 15:22:58;;;;;;;2.05;1.10;;;;;;;18.08;50.33;99295.75;16122559;19;130243;-40
2023/10/26 15:28:20;;;;;;;2.85;1.38;;;;;;;18.07;50.20;99301.53;16117619;19;131628;-40
2023/10/26 15:33:42;;;;;;;1.90;1.00;;;;;;;18.05;50.16;99299.06;16111924;19;129990;-39
2023/10/26 15:39:04;;;;;;;2.03;1.20;;;;;;;18.05;50.12;99301.84;16112707;19;131073;-39
2023/10/26 15:44:26;;;;;;;1.10;0.98;;;;;;;18.05;50.06;99299.06;16115498;19;130619;-39
2023/10/26 15:49:49;;;;;;;3.63;1.08;;;;;;;18.05;50.12;99309.28;16119965;19;130688;-39
2023/10/26 15:55:11;;;;;;;1.88;1.00;;;;;;;18.04;50.22;99308.47;16119089;19;136291;-39
2023/10/26 16:00:33;;;;;;;2.30;1.35;;;;;;;18.03;50.31;99312.34;16114218;19;130610;-43
2023/10/26 16:06:06;;;;;;;2.42;1.33;;;;;;;18.02;50.34;99305.16;16108065;19;130771;-40
2023/10/26 16:11:28;;;;;;;2.33;1.10;;;;;;;17.98;50.33;99304.91;16109876;19;129989;-39
2023/10/26 16:16:50;;;;;;;4.03;1.67;;;;;;;18.02;50.08;99305.16;16111001;19;130071;-41
2023/10/26 16:22:12;;;;;;;7.35;1.50;;;;;;;18.05;49.99;99299.06;16115329;19;129756;-39
2023/10/26 16:27:34;;;;;;;2.90;1.70;;;;;;;18.05;49.78;99296.28;16111377;19;131947;-40
2023/10/26 16:32:56;;;;;;;4.45;1.88;;;;;;;18.04;50.24;99286.34;16111144;19;132216;-40
2023/10/26 16:38:18;;;;;;;3.47;1.50;;;;;;;18.02;49.92;99288.56;16110412;19;130994;-40
2023/10/26 16:43:40;;;;;;;3.95;1.70;;;;;;;18.00;49.75;99291.63;16110436;19;129655;-39
2023/10/26 16:49:02;;;;;;;4.15;1.45;;;;;;;17.99;49.68;99294.66;16109184;19;131173;-40
2023/10/26 16:54:24;;;;;;;3.58;1.77;;;;;;;17.97;49.78;99297.69;16104457;19;132212;-40
2023/10/26 16:59:46;;;;;;;12.93;3.28;;;;;;;17.97;49.56;99310.72;16106083;19;130333;-37
2023/10/26 17:05:09;;;;;;;18.25;4.18;;;;;;;18.03;50.02;99301.28;16101647;19;131319;-37
2023/10/26 17:10:31;;;;;;;13.52;3.92;;;;;;;18.29;49.67;99303.94;16107552;19;133909;-37
2023/10/26 17:15:53;;;;;;;12.23;3.90;;;;;;;18.75;49.45;99298.19;16094830;19;134213;-38
2023/10/26 17:21:15;;;;;;;10.65;3.55;;;;;;;19.26;48.84;99282.31;16104045;19;132702;-38
2023/10/26 17:26:37;;;;;;;18.90;4.40;;;;;;;19.72;48.42;99286.59;16096208;19;130295;-42
2023/10/26 17:31:59;;;;;;;29.63;4.43;;;;;;;20.08;47.64;99271.50;16104593;19;130082;-39
2023/10/26 17:37:21;;;;;;;16.77;4.30;;;;;;;20.29;47.25;99263.75;16101573;19;132491;-38
2023/10/26 17:42:43;;;;;;;31.23;5.25;;;;;;;20.35;47.37;99270.91;16017046;19;131165;-40
2023/10/26 17:48:05;;;;;;;32.72;5.65;;;;;;;20.36;47.05;99268.94;16092549;19;131010;-39
2023/10/26 17:53:27;;;;;;;44.78;5.68;;;;;;;20.30;47.32;99265.41;16102213;19;130189;-40
2023/10/26 17:58:49;;;;;;;27.73;4.82;;;;;;;20.21;47.65;99270.78;16103440;19;130244;-40
2023/10/26 18:04:12;;;;;;;25.08;4.85;;;;;;;20.11;47.84;99257.88;16103051;19;131471;-39
2023/10/26 18:09:36;;;;;;;24.33;5.35;;;;;;;20.02;47.85;99253.28;16098407;19;130058;-39
2023/10/26 18:14:58;;;;;;;23.13;5.28;;;;;;;19.93;47.79;99248.34;16103025;19;129598;-40
2023/10/26 18:20:20;;;;;;;21.23;5.20;;;;;;;19.82;48.14;99244.84;16104743;19;129408;-40
2023/10/26 18:25:42;;;;;;;38.95;5.13;;;;;;;19.77;48.35;99246.88;16101637;19;129198;-40
2023/10/26 18:31:12;;;;;;;20.00;4.68;;;;;;;19.79;48.69;99255.72;16098297;19;130327;-40
2023/10/26 18:36:38;;;;;;;23.77;4.40;;;;;;;19.78;48.71;99248.53;16106224;19;130776;-39
2023/10/26 18:42:01;;;;;;;35.13;5.82;;;;;;;19.81;48.83;99262.63;16114915;19;131986;-40
2023/10/26 18:47:23;;;;;;;23.63;4.70;;;;;;;19.89;48.70;99252.00;16113515;19;130629;-40
2023/10/26 18:52:44;;;;;;;37.95;5.25;;;;;;;20.08;48.53;99246.50;16117150;19;130373;-40
2023/10/26 18:58:10;;;;;;;29.30;5.30;;;;;;;20.32;47.91;99254.81;16116732;19;130140;-40
2023/10/26 19:03:32;;;;;;;29.95;4.57;;;;;;;20.58;48.11;99246.94;16120990;19;131333;-40
2023/10/26 19:08:58;;;;;;;38.92;4.85;;;;;;;20.82;47.73;99254.38;16118651;19;131124;-40
2023/10/26 19:14:20;;;;;;;26.23;5.65;;;;;;;21.03;47.53;99256.84;16114538;19;131496;-43
2023/10/26 19:19:42;;;;;;;22.20;4.18;;;;;;;21.20;46.82;99247.94;16119010;19;129915;-39
2023/10/26 19:25:05;;;;;;;30.17;4.70;;;;;;;21.33;47.06;99246.31;16110855;19;130140;-40
2023/10/26 19:30:32;;;;;;;39.80;4.55;;;;;;;21.44;46.84;99247.78;16116266;19;130793;-40
2023/10/26 19:35:54;;;;;;;25.48;5.13;;;;;;;21.54;46.39;99254.34;16116084;19;130497;-42
2023/10/26 19:41:16;;;;;;;19.77;3.60;;;;;;;21.64;46.42;99252.16;16115542;19;130802;-40
2023/10/26 19:46:38;;;;;;;23.02;4.03;;;;;;;21.69;46.44;99240.13;16113939;19;129884;-40
2023/10/26 19:52:00;;;;;;;16.13;3.97;;;;;;;21.70;46.32;99238.97;16118048;19;129885;-40
2023/10/26 19:57:22;;;;;;;25.10;4.75;;;;;;;21.68;46.69;99235.69;16115531;19;130170;-40
2023/10/26 20:02:44;;;;;;;27.52;4.15;;;;;;;21.63;46.46;99235.78;16115451;19;129688;-41
2023/10/26 20:08:06;;;;;;;30.95;4.57;;;;;;;21.60;46.92;99226.09;16116142;19;130310;-40
2023/10/26 20:13:28;;;;;;;23.33;4.50;;;;;;;21.57;46.99;99226.72;16115870;19;129487;-40
2023/10/26 20:18:50;;;;;;;18.38;4.22;;;;;;;21.51;47.23;99212.09;16118430;19;130393;-41
2023/10/26 20:24:13;;;;;;;24.02;4.25;;;;;;;21.46;47.32;99216.88;16111384;19;131832;-39
2023/10/26 20:29:35;;;;;;;15.80;3.95;;;;;;;21.36;47.43;99207.59;16112522;19;129664;-40
2023/10/26 20:34:57;;;;;;;38.30;5.03;;;;;;;21.28;48.07;99210.28;16109910;19;130767;-40
2023/10/26 20:40:18;;;;;;;38.90;4.15;;;;;;;21.18;48.20;99205.72;16109241;19;131695;-41
2023/10/26 20:45:41;;;;;;;29.08;4.95;;;;;;;21.07;48.13;99191.16;16109464;19;130120;-43
2023/10/26 20:51:07;;;;;;;43.92;5.07;;;;;;;20.97;48.67;99183.00;16099108;19;131984;-40
2023/10/26 20:56:29;;;;;;;34.22;4.43;;;;;;;20.82;48.48;99171.00;16103124;19;131257;-44
2023/10/26 21:01:51;;;;;;;32.80;4.55;;;;;;;20.72;48.59;99168.38;16104217;19;133344;-41
2023/10/26 21:07:14;;;;;;;23.63;4.05;;;;;;;20.64;48.98;99166.31;16110621;19;131081;-42
2023/10/26 21:12:36;;;;;;;38.33;4.57;;;;;;;20.57;48.67;99152.78;16110520;19;129507;-42
2023/10/26 21:17:57;;;;;;;27.77;4.13;;;;;;;20.51;48.75;99151.22;16111895;19;130593;-41
2023/10/26 21:23:20;;;;;;;27.90;4.63;;;;;;;20.46;48.89;99146.56;16107858;19;129539;-42
2023/10/26 21:28:42;;;;;;;36.50;4.88;;;;;;;20.39;48.98;99135.03;16103493;19;129967;-43
2023/10/26 21:34:04;;;;;;;36.80;3.95;;;;;;;20.33;49.30;99142.63;16106508;19;129909;-41
2023/10/26 21:39:26;;;;;;;33.15;4.38;;;;;;;20.29;49.11;99141.56;16109999;19;130928;-41
2023/10/26 21:44:48;;;;;;;23.58;4.03;;;;;;;20.21;49.85;99128.34;16105944;19;129724;-43
2023/10/26 21:50:10;;;;;;;34.45;4.03;;;;;;;20.11;49.50;99132.09;16103784;19;130513;-41
2023/10/26 21:55:34;;;;;;;17.27;3.45;;;;;;;20.01;49.99;99130.28;16098846;19;129506;-41
2023/10/26 22:00:56;;;;;;;20.33;3.70;;;;;;;19.93;49.97;99122.63;16100651;19;130366;-42
2023/10/26 22:06:18;;;;;;;28.25;3.50;;;;;;;19.87;49.83;99113.53;16098530;19;130132;-41
2023/10/26 22:11:40;;;;;;;27.90;3.45;;;;;;;19.83;49.79;99112.47;16106380;19;132673;-41
2023/10/26 22:17:02;;;;;;;15.20;2.85;;;;;;;19.76;49.60;99117.59;16117021;19;130681;-41
2023/10/26 22:22:24;;;;;;;17.40;3.22;;;;;;;19.68;50.03;99106.03;16119275;19;130891;-43
2023/10/26 22:27:46;;;;;;;25.42;3.47;;;;;;;19.65;49.87;99098.31;16120483;19;129656;-41
2023/10/26 22:33:08;;;;;;;14.32;3.38;;;;;;;19.61;49.70;99094.47;16116818;19;130052;-41
2023/10/26 22:38:30;;;;;;;15.82;3.40;;;;;;;19.58;50.02;99100.59;16109774;19;131127;-41
2023/10/26 22:43:53;;;;;;;12.10;2.88;;;;;;;19.54;49.64;99085.69;16120620;19;129696;-42
2023/10/26 22:49:15;;;;;;;14.10;2.90;;;;;;;19.51;49.86;99089.88;16118398;19;129475;-41
2023/10/26 22:54:37;;;;;;;19.17;2.97;;;;;;;19.48;50.15;99095.19;16117812;19;130894;-42
2023/10/26 22:59:59;;;;;;;15.85;2.85;;;;;;;19.45;50.13;99095.78;16116169;19;131058;-41
2023/10/26 23:05:21;;;;;;;15.82;3.05;;;;;;;19.41;50.14;99095.53;16118054;19;130615;-39
2023/10/26 23:10:43;;;;;;;14.25;2.60;;;;;;;19.39;49.98;99095.00;16117962;19;130709;-43
2023/10/26 23:16:05;;;;;;;12.20;3.25;;;;;;;19.36;50.36;99079.00;16115314;19;129691;-46
2023/10/26 23:21:28;;;;;;;15.63;2.85;;;;;;;19.32;49.99;99081.50;16118671;19;129955;-41
2023/10/26 23:26:50;;;;;;;10.98;2.92;;;;;;;19.30;49.95;99080.16;16118969;19;129731;-41
2023/10/26 23:32:12;;;;;;;12.88;2.30;;;;;;;19.27;49.80;99078.81;16115375;19;130944;-40
2023/10/26 23:37:34;;;;;;;7.53;2.30;;;;;;;19.23;50.12;99077.75;16119503;19;129535;-43
2023/10/26 23:42:56;;;;;;;7.88;2.45;;;;;;;19.21;50.09;99074.44;16111649;19;130959;-42
2023/10/26 23:48:18;;;;;;;11.98;2.90;;;;;;;19.20;50.24;99070.00;16109351;19;130700;-41
2023/10/26 23:53:40;;;;;;;14.40;2.88;;;;;;;19.18;50.24;99070.28;16116560;19;129497;-41
2023/10/26 23:59:03;;;;;;;9.73;2.38;;;;;;;19.15;50.01;99061.75;16104767;19;130324;-42
